首页
METAR-TAF:

METAR-TAF

机场 :

卢森堡-芬德尔国际机场

卢森堡, 卢森堡

纬度: 49-37N, 经度: 006-13E, 海拔: 376米

当前天气观测

该预报发布于48分钟前的14:50 UTC
风速12节,风向西南,在西之间变化
温度 12°C
湿度 82%
气压 997 hPa
能见度10公里或以上
少量云层高于1000英尺
散云层高于2500英尺

METAR: ELLX 051450Z 23012KT 190V270 9999 FEW010 SCT025 12/09 Q0997 NOSIG

时间: 17:38 (15:38 UTC)

预报

该预报发布于4小时和38分钟前的11:00 UTC
预报有效从05日的 12点(UTC)到 06日的 18点(UTC)
风速12节,风向西南
能见度10公里或以上
散云层高于1500英尺
多云层高于2000英尺
短暂存在
从 05日的 12点(UTC)到 05日的 18点(UTC)
风速17节,风向西南,有时为27节阵风
能見度: 4500
散云层高于1000英尺
多云层高于1200英尺, 塔状积云.
雨, 阵雨
短暂存在
从 06日的 10点(UTC)到 06日的 15点(UTC)
散云层高于2000英尺, 塔状积云.
小阵雨

TAF: ELLX 051100Z 0512/0618 23012KT 9999 SCT015 BKN020 TEMPO 0512/0518 23017G27KT 4500 RA SHRA SCT010 BKN012TCU TEMPO 0610/0615 -SHRA SCT020TCU

超过4000个机场的气象观测和天气预报(METAR&TAF报告)。

可查询的气象台以黄色和红色小点在地图上表示。

将鼠标移到小点上方,可查看气象台名称。

然后点击查看天气观测和预报。

如需切换地图:点击带黑十字的绿色按钮放大地图;点击带横线的绿色按钮缩小地图;或者点击绿色箭头查看邻近地区的地图。


METAR-TAF: